Time;durP1;ratioP1;P1;durP2;ratioP2;P2;SDS_P1;SDS_P2;PMS_P1;PMS_P2;Temp;Humidity;BMP_temperature;BMP_pressure;BME280_temperature;BME280_humidity;BME280_pressure;Samples;Min_cycle;Max_cycle;Signal;HPM_P1;HPM_P2
2023/09/08 00:02:22;;;;;;;7.00;6.30;;;15.40;58.00;;;;;;5015548;28;20549;-70
2023/09/08 00:04:48;;;;;;;8.40;5.97;;;15.50;57.90;;;;;;5014289;28;20415;-70
2023/09/08 00:07:13;;;;;;;8.00;5.30;;;15.40;58.30;;;;;;5015717;28;20458;-71
2023/09/08 00:09:39;;;;;;;5.43;4.80;;;15.40;57.90;;;;;;5015886;28;20646;-71
2023/09/08 00:12:05;;;;;;;7.00;5.97;;;15.40;58.60;;;;;;5014748;28;20189;-71
2023/09/08 00:14:30;;;;;;;5.60;4.97;;;15.40;58.60;;;;;;5014194;28;20180;-72
2023/09/08 00:16:56;;;;;;;6.53;4.97;;;15.30;59.40;;;;;;5015556;28;20290;-71
2023/09/08 00:19:22;;;;;;;6.93;5.17;;;15.30;59.20;;;;;;5016065;28;20536;-71
2023/09/08 00:21:49;;;;;;;8.20;5.13;;;15.30;59.80;;;;;;5013979;28;20203;-71
2023/09/08 00:24:15;;;;;;;11.43;5.77;;;15.30;60.40;;;;;;5014969;28;20426;-71
2023/09/08 00:26:40;;;;;;;6.97;5.30;;;15.20;60.90;;;;;;5015388;28;20435;-71
2023/09/08 00:29:06;;;;;;;7.20;6.50;;;15.20;60.90;;;;;;5013671;28;20553;-72
2023/09/08 00:31:32;;;;;;;7.83;5.67;;;15.20;60.90;;;;;;5014648;28;20185;-71
2023/09/08 00:33:58;;;;;;;7.37;5.73;;;15.20;61.30;;;;;;5014602;28;20182;-71
2023/09/08 00:36:23;;;;;;;7.83;5.93;;;15.20;61.80;;;;;;5013622;28;20431;-71
2023/09/08 00:38:49;;;;;;;9.23;5.67;;;15.10;61.60;;;;;;5015000;28;20202;-71
2023/09/08 00:41:14;;;;;;;5.90;5.20;;;15.10;61.90;;;;;;5014968;28;20193;-71
2023/09/08 00:43:40;;;;;;;8.10;6.50;;;15.10;62.10;;;;;;5012094;28;20185;-71
2023/09/08 00:46:06;;;;;;;7.30;5.40;;;15.10;62.40;;;;;;5015571;28;20209;-71
2023/09/08 00:48:34;;;;;;;7.60;4.60;;;15.10;62.10;;;;;;5013960;28;20168;-72
2023/09/08 00:50:59;;;;;;;8.53;6.23;;;15.10;63.30;;;;;;5013281;28;20822;-72
2023/09/08 00:53:25;;;;;;;7.70;5.97;;;15.10;63.40;;;;;;5014701;28;20496;-71
2023/09/08 00:55:51;;;;;;;7.60;5.90;;;15.00;64.00;;;;;;5014587;28;20554;-72
2023/09/08 00:58:17;;;;;;;5.77;5.20;;;15.00;64.60;;;;;;5012479;28;20175;-72
2023/09/08 01:00:44;;;;;;;6.60;5.60;;;14.90;65.50;;;;;;5014232;28;20414;-71
2023/09/08 01:03:11;;;;;;;8.80;5.70;;;14.90;65.80;;;;;;5014714;28;20207;-70
2023/09/08 01:05:36;;;;;;;7.07;6.43;;;14.90;66.90;;;;;;5012854;28;20455;-72
2023/09/08 01:08:03;;;;;;;7.67;6.70;;;14.90;68.00;;;;;;5014066;28;20410;-70
2023/09/08 01:10:29;;;;;;;8.23;5.70;;;14.90;67.80;;;;;;5013544;28;20176;-72
2023/09/08 01:12:54;;;;;;;8.83;6.87;;;14.80;68.40;;;;;;5012830;28;20428;-72
2023/09/08 01:15:20;;;;;;;9.00;7.50;;;14.80;69.30;;;;;;5014041;28;20954;-70
2023/09/08 01:17:45;;;;;;;8.40;7.00;;;14.80;70.70;;;;;;5013908;28;20230;-70
2023/09/08 01:20:22;;;;;;;10.73;7.43;;;14.80;70.50;;;;;;5012779;28;20179;-71
2023/09/08 01:23:12;;;;;;;7.67;6.97;;;14.80;70.80;;;;;;5014301;28;20249;-71
2023/09/08 01:25:59;;;;;;;14.17;7.70;;;14.80;70.70;;;;;;5014092;28;20454;-71
2023/09/08 01:28:26;;;;;;;9.47;7.90;;;14.70;72.20;;;;;;5013028;28;20417;-70
2023/09/08 01:30:54;;;;;;;9.37;7.30;;;14.70;72.30;;;;;;5013094;28;20430;-71
2023/09/08 01:33:20;;;;;;;13.60;8.13;;;14.70;72.90;;;;;;5014011;28;20443;-71
2023/09/08 01:35:46;;;;;;;10.50;7.57;;;14.70;72.90;;;;;;5014443;28;20477;-71
2023/09/08 01:38:12;;;;;;;10.10;7.80;;;14.70;73.20;;;;;;5012831;28;20826;-71
2023/09/08 01:40:37;;;;;;;8.83;6.60;;;14.70;72.50;;;;;;5013601;28;20423;-71
2023/09/08 01:43:03;;;;;;;8.50;6.60;;;14.70;73.30;;;;;;5014287;28;20223;-71
2023/09/08 01:45:28;;;;;;;8.43;7.27;;;14.60;73.10;;;;;;5012552;28;20234;-69
2023/09/08 01:47:54;;;;;;;9.33;6.63;;;14.60;74.10;;;;;;5013647;28;20179;-68
2023/09/08 01:50:22;;;;;;;7.90;6.47;;;14.50;74.40;;;;;;5014341;28;20187;-74
2023/09/08 01:52:48;;;;;;;10.50;6.67;;;14.50;75.20;;;;;;5012482;28;20583;-72
2023/09/08 01:55:15;;;;;;;10.57;8.97;;;14.50;75.20;;;;;;5013736;28;20490;-71
2023/09/08 01:57:40;;;;;;;9.87;7.50;;;14.50;75.50;;;;;;5012409;28;20429;-72
2023/09/08 02:00:06;;;;;;;8.60;7.20;;;14.50;74.20;;;;;;5018258;28;20417;-72
2023/09/08 02:02:32;;;;;;;9.30;7.90;;;14.50;75.60;;;;;;5017583;28;20682;-71
2023/09/08 02:04:57;;;;;;;7.90;6.07;;;14.40;76.00;;;;;;5017149;28;20417;-72
2023/09/08 02:07:23;;;;;;;8.33;6.63;;;14.40;75.50;;;;;;5018207;28;20176;-71
2023/09/08 02:09:48;;;;;;;7.83;6.33;;;14.30;75.80;;;;;;5016976;28;20192;-72
2023/09/08 02:12:14;;;;;;;10.30;6.83;;;14.30;76.20;;;;;;5017130;28;20194;-71
2023/09/08 02:14:39;;;;;;;6.93;6.20;;;14.30;76.70;;;;;;5017447;28;20569;-71
2023/09/08 02:17:06;;;;;;;6.63;6.03;;;14.30;77.10;;;;;;5016278;28;20218;-71
2023/09/08 02:19:31;;;;;;;8.90;6.17;;;14.30;77.20;;;;;;5017841;28;20712;-70
2023/09/08 02:21:57;;;;;;;9.80;7.33;;;14.30;77.40;;;;;;5017564;28;20465;-71
2023/09/08 02:24:22;;;;;;;8.73;6.90;;;14.20;77.70;;;;;;5016159;28;20178;-71
2023/09/08 02:26:49;;;;;;;10.33;5.97;;;14.20;78.30;;;;;;5017104;28;20205;-71
2023/09/08 02:29:15;;;;;;;8.47;6.83;;;14.20;78.60;;;;;;5018232;28;20221;-72
2023/09/08 02:31:40;;;;;;;8.07;7.27;;;14.20;79.40;;;;;;5016231;28;20418;-71
2023/09/08 02:34:06;;;;;;;7.97;7.03;;;14.20;78.60;;;;;;5017495;28;20172;-71
2023/09/08 02:36:31;;;;;;;7.73;6.57;;;14.10;78.10;;;;;;5016511;28;20264;-71
2023/09/08 02:38:57;;;;;;;8.20;7.40;;;14.10;77.60;;;;;;5016988;28;20268;-71
2023/09/08 02:41:23;;;;;;;10.93;7.00;;;14.00;78.60;;;;;;5016787;28;20191;-70
2023/09/08 02:43:49;;;;;;;9.17;7.13;;;14.10;78.10;;;;;;5016686;28;20666;-70
2023/09/08 02:46:15;;;;;;;7.57;6.70;;;14.00;77.80;;;;;;5016236;28;20477;-69
2023/09/08 02:48:41;;;;;;;10.10;7.60;;;14.00;77.70;;;;;;5017743;28;20189;-69
2023/09/08 02:51:06;;;;;;;10.30;7.57;;;14.00;78.00;;;;;;5015410;28;20175;-69
2023/09/08 02:53:32;;;;;;;8.37;7.07;;;14.00;77.50;;;;;;5017836;28;20415;-70
2023/09/08 02:55:58;;;;;;;8.07;6.73;;;14.00;77.00;;;;;;5015809;28;20285;-70
2023/09/08 02:58:24;;;;;;;8.07;6.93;;;13.90;77.00;;;;;;5017245;28;20190;-70
2023/09/08 03:00:53;;;;;;;11.13;7.10;;;13.90;77.30;;;;;;5016452;28;20781;-70
2023/09/08 03:03:19;;;;;;;7.70;6.90;;;13.80;77.80;;;;;;5015653;28;20476;-70
2023/09/08 03:05:45;;;;;;;10.67;7.00;;;13.80;77.70;;;;;;5016587;28;20544;-70
2023/09/08 03:08:10;;;;;;;8.93;7.37;;;13.80;77.80;;;;;;5016989;28;20962;-70
2023/09/08 03:10:36;;;;;;;9.30;6.80;;;13.80;78.10;;;;;;5015284;28;20177;-70
2023/09/08 03:13:05;;;;;;;7.37;6.00;;;13.80;78.20;;;;;;5014960;28;20191;-70
2023/09/08 03:15:31;;;;;;;8.50;6.80;;;13.80;77.80;;;;;;5016639;28;20203;-70
2023/09/08 03:18:00;;;;;;;9.73;7.13;;;13.80;77.50;;;;;;5016829;28;20415;-70
2023/09/08 03:20:28;;;;;;;9.87;8.37;;;13.80;78.00;;;;;;5014927;28;20187;-70
2023/09/08 03:22:54;;;;;;;8.03;7.27;;;13.70;78.10;;;;;;5016059;28;20907;-70
2023/09/08 03:25:20;;;;;;;8.57;7.73;;;13.70;78.00;;;;;;5016456;28;20443;-69
2023/09/08 03:27:45;;;;;;;9.20;6.80;;;13.70;79.00;;;;;;5016409;28;20421;-70
2023/09/08 03:30:11;;;;;;;8.70;7.80;;;13.70;78.60;;;;;;5015104;28;20181;-69
2023/09/08 03:32:37;;;;;;;7.90;6.83;;;13.70;78.40;;;;;;5015889;28;20198;-70
2023/09/08 03:35:06;;;;;;;9.60;7.80;;;13.70;79.40;;;;;;5016618;28;20427;-70
2023/09/08 03:37:31;;;;;;;7.80;6.83;;;13.70;78.90;;;;;;5016070;28;20419;-70
2023/09/08 03:39:57;;;;;;;8.40;7.00;;;13.60;78.10;;;;;;5014825;28;20413;-70
2023/09/08 03:42:22;;;;;;;9.40;7.67;;;13.50;79.50;;;;;;5015846;28;20696;-70
2023/09/08 03:44:48;;;;;;;9.40;7.00;;;13.50;79.50;;;;;;5016754;28;20583;-70
2023/09/08 03:47:13;;;;;;;11.07;9.27;;;13.50;80.10;;;;;;5014994;28;20395;-70
2023/09/08 03:49:39;;;;;;;10.60;7.63;;;13.50;81.90;;;;;;5015687;28;20169;-70
2023/09/08 03:52:04;;;;;;;9.57;8.60;;;13.50;81.90;;;;;;5015198;28;20192;-69
2023/09/08 03:54:30;;;;;;;12.17;8.10;;;13.50;82.00;;;;;;5014862;28;20183;-70
2023/09/08 03:56:55;;;;;;;9.83;8.20;;;13.50;81.70;;;;;;5014686;28;20216;-70
2023/09/08 03:59:21;;;;;;;10.33;8.27;;;13.50;81.00;;;;;;5015223;28;20234;-70
2023/09/08 04:01:46;;;;;;;8.43;7.30;;;13.50;81.50;;;;;;5015198;28;20210;-70
2023/09/08 04:04:12;;;;;;;9.50;8.10;;;13.60;81.50;;;;;;5015205;28;20230;-70
2023/09/08 04:06:37;;;;;;;9.67;7.97;;;13.50;82.10;;;;;;5014432;28;20227;-70
2023/09/08 04:09:03;;;;;;;11.17;7.20;;;13.50;80.60;;;;;;5014976;28;20178;-70
2023/09/08 04:11:29;;;;;;;12.13;7.60;;;13.50;80.60;;;;;;5014993;28;20177;-70
2023/09/08 04:13:54;;;;;;;10.17;8.23;;;13.50;81.40;;;;;;5014434;28;20212;-69
2023/09/08 04:16:20;;;;;;;9.00;7.00;;;13.50;80.50;;;;;;5014492;28;20197;-70
2023/09/08 04:18:45;;;;;;;11.20;8.63;;;13.50;79.90;;;;;;5015296;28;20177;-70
2023/09/08 04:21:11;;;;;;;10.40;8.90;;;13.50;80.10;;;;;;5013754;28;20276;-70
2023/09/08 04:23:36;;;;;;;10.60;9.10;;;13.50;80.50;;;;;;5014381;28;20177;-70
2023/09/08 04:26:02;;;;;;;9.70;8.70;;;13.50;81.40;;;;;;5015057;28;20252;-70
2023/09/08 04:28:28;;;;;;;10.20;7.97;;;13.50;80.50;;;;;;5014058;28;20176;-70
2023/09/08 04:30:53;;;;;;;8.63;7.27;;;13.50;80.70;;;;;;5015225;28;20566;-70
2023/09/08 04:33:19;;;;;;;9.97;8.30;;;13.40;79.60;;;;;;5014880;28;20176;-70
2023/09/08 04:35:44;;;;;;;8.33;7.30;;;13.50;79.50;;;;;;5014188;28;20210;-72
2023/09/08 04:38:10;;;;;;;11.40;7.20;;;13.40;79.40;;;;;;5014704;28;20231;-70
2023/09/08 04:40:35;;;;;;;10.20;8.33;;;13.30;79.30;;;;;;5013776;28;20678;-70
2023/09/08 04:43:01;;;;;;;13.00;9.90;;;13.40;79.60;;;;;;5014008;28;20240;-69
2023/09/08 04:45:26;;;;;;;10.43;8.23;;;13.30;79.30;;;;;;5014417;28;20204;-69
2023/09/08 04:47:52;;;;;;;10.47;7.80;;;13.40;79.20;;;;;;5014725;28;20190;-70
2023/09/08 04:50:18;;;;;;;9.60;7.87;;;13.30;78.30;;;;;;5013089;28;20215;-70
2023/09/08 04:52:43;;;;;;;8.50;7.60;;;13.30;78.10;;;;;;5012871;28;20674;-70
2023/09/08 04:55:09;;;;;;;8.53;6.80;;;13.30;78.50;;;;;;5014676;28;20920;-70
2023/09/08 04:57:35;;;;;;;8.33;7.50;;;13.30;79.70;;;;;;5013348;28;20234;-70
2023/09/08 05:00:01;;;;;;;10.13;7.10;;;13.30;79.30;;;;;;5013584;28;20918;-70
2023/09/08 05:02:27;;;;;;;7.90;6.20;;;13.30;79.40;;;;;;5013778;28;20215;-70
2023/09/08 05:04:52;;;;;;;11.43;7.77;;;13.30;79.40;;;;;;5014527;28;20420;-70
2023/09/08 05:07:18;;;;;;;7.97;7.13;;;13.40;79.40;;;;;;5013360;28;20266;-69
2023/09/08 05:09:44;;;;;;;8.57;7.77;;;13.30;79.10;;;;;;5014237;28;20181;-70
2023/09/08 05:12:09;;;;;;;9.13;7.70;;;13.30;79.30;;;;;;5013645;28;20734;-70
2023/09/08 05:14:35;;;;;;;8.27;7.37;;;13.40;79.50;;;;;;5013195;28;20186;-69
2023/09/08 05:17:01;;;;;;;11.77;8.53;;;13.40;80.20;;;;;;5013850;28;20204;-70
2023/09/08 05:19:26;;;;;;;9.13;7.40;;;13.40;79.40;;;;;;5014687;28;20231;-69
2023/09/08 05:21:54;;;;;;;10.47;7.50;;;13.50;79.00;;;;;;5012188;28;20209;-69
2023/09/08 05:24:20;;;;;;;10.27;7.73;;;13.50;79.50;;;;;;5014556;28;20182;-69
2023/09/08 05:26:46;;;;;;;8.10;7.30;;;13.60;77.30;;;;;;5012416;28;20860;-70
2023/09/08 05:29:11;;;;;;;9.47;8.13;;;13.60;78.30;;;;;;5013994;28;20417;-70
2023/09/08 05:31:37;;;;;;;9.40;6.70;;;13.70;77.80;;;;;;5012205;28;20182;-69
2023/09/08 05:34:03;;;;;;;9.70;7.93;;;13.70;76.80;;;;;;5012856;28;20186;-70
2023/09/08 05:36:29;;;;;;;8.37;6.97;;;13.80;75.20;;;;;;5012507;28;20207;-71
2023/09/08 05:38:55;;;;;;;8.80;7.40;;;14.50;84.20;;;;;;5014778;28;20447;-72
2023/09/08 05:41:21;;;;;;;8.70;6.70;;;16.20;82.40;;;;;;5015937;28;20477;-72
2023/09/08 05:43:47;;;;;;;6.53;5.67;;;;;;;;;;5013205;28;20415;-78
2023/09/08 05:46:12;;;;;;;8.37;5.07;;;19.90;33.50;;;;;;5013178;28;20196;-73
2023/09/08 05:48:38;;;;;;;6.60;5.00;;;;;;;;;;5014871;28;20402;-71
2023/09/08 05:51:06;;;;;;;7.20;5.50;;;;;;;;;;5012295;28;20651;-71
2023/09/08 05:53:32;;;;;;;7.00;5.80;;;;;;;;;;5013540;28;20419;-72
2023/09/08 05:55:58;;;;;;;7.37;5.93;;;;;;;;;;5012221;28;20434;-73
2023/09/08 05:58:27;;;;;;;13.60;5.83;;;;;;;;;;5014605;28;20419;-73
2023/09/08 06:00:53;;;;;;;6.63;6.00;;;;;;;;;;5012888;28;20403;-72
2023/09/08 06:03:19;;;;;;;7.33;6.00;;;;;;;;;;5012264;28;20471;-72
2023/09/08 06:05:45;;;;;;;7.93;6.00;;;;;;;;;;5036887;23;20494;-68
2023/09/08 06:08:11;;;;;;;6.87;6.37;;;;;;;;;;5011897;28;20422;-68
2023/09/08 06:10:38;;;;;;;7.53;6.93;;;;;;;;;;5012283;28;20429;-68
2023/09/08 06:13:04;;;;;;;9.77;7.00;;;;;;;;;;5014091;28;20399;-69
2023/09/08 06:15:30;;;;;;;11.50;7.13;;;;;;;;;;5011237;28;20450;-67
2023/09/08 06:17:56;;;;;;;7.10;6.40;;;;;;;;;;5012366;28;20407;-66
2023/09/08 06:20:22;;;;;;;7.97;7.20;;;;;;;;;;5012895;28;20461;-66
2023/09/08 06:22:48;;;;;;;7.03;6.33;;;;;;;;;;5012211;28;20450;-68
2023/09/08 06:25:14;;;;;;;7.10;6.40;;;;;;;;;;5012567;28;20415;-68
2023/09/08 06:27:40;;;;;;;9.27;8.37;;;;;;;;;;5012297;28;20415;-67
2023/09/08 06:30:06;;;;;;;11.03;7.33;;;;;;;;;;5012945;28;20418;-67
2023/09/08 06:32:32;;;;;;;6.93;6.43;;;;;;;;;;5012924;28;20409;-68
2023/09/08 06:34:58;;;;;;;8.83;7.93;;;;;;;;;;5011176;28;20505;-69
2023/09/08 06:37:24;;;;;;;7.70;7.10;;;;;;;;;;5013304;28;20438;-68
2023/09/08 06:39:50;;;;;;;8.23;7.53;;;;;;;;;;5013147;28;20457;-67
2023/09/08 06:42:16;;;;;;;6.67;6.13;;;34.10;1.00;;;;;;5014534;28;20462;-66
2023/09/08 06:44:42;;;;;;;8.50;7.70;;;;;;;;;;5014512;28;20506;-66
2023/09/08 06:47:08;;;;;;;9.60;7.53;;;;;;;;;;5017898;28;20230;-66
2023/09/08 06:49:34;;;;;;;8.03;7.43;;;;;;;;;;5016998;28;20188;-66
2023/09/08 06:52:00;;;;;;;8.33;7.40;;;;;;;;;;5016853;28;20443;-66
2023/09/08 06:54:26;;;;;;;7.73;7.13;;;;;;;;;;5014548;28;20426;-66
2023/09/08 06:56:52;;;;;;;6.67;6.17;;;;;;;;;;5016340;28;20204;-67
2023/09/08 06:59:18;;;;;;;8.00;7.30;;;;;;;;;;5016927;28;20423;-66
2023/09/08 07:01:46;;;;;;;9.50;8.17;;;;;;;;;;5015095;28;20503;-67
2023/09/08 07:04:12;;;;;;;7.53;6.70;;;;;;;;;;5015512;28;20254;-68
2023/09/08 07:06:41;;;;;;;8.13;7.30;;;;;;;;;;5016511;28;20486;-68
2023/09/08 07:09:08;;;;;;;6.47;5.97;;;;;;;;;;5015993;28;20199;-68
2023/09/08 07:11:34;;;;;;;8.00;7.30;;;;;;;;;;5014084;28;20418;-67
2023/09/08 07:14:00;;;;;;;7.17;6.40;;;;;;;;;;5014393;28;20419;-67
2023/09/08 07:16:26;;;;;;;10.20;8.07;;;;;;;;;;5015522;28;20422;-67
2023/09/08 07:18:52;;;;;;;7.50;6.90;;;;;;;;;;5015693;28;20454;-67
2023/09/08 07:21:18;;;;;;;8.63;7.93;;;;;;;;;;5015585;28;20411;-67
2023/09/08 07:23:44;;;;;;;8.80;7.90;;;;;;;;;;5015242;28;20414;-67
2023/09/08 07:26:10;;;;;;;9.03;7.83;;;;;;;;;;5015243;28;20474;-71
2023/09/08 07:28:36;;;;;;;11.63;9.70;;;;;;;;;;5019440;28;20403;-67
2023/09/08 07:31:06;;;;;;;14.80;10.50;;;;;;;;;;5016103;28;20495;-70
2023/09/08 07:33:32;;;;;;;10.83;9.73;;;;;;;;;;5015072;28;20430;-68
2023/09/08 07:35:58;;;;;;;12.13;9.40;;;;;;;;;;5017077;28;20474;-68
2023/09/08 07:38:27;;;;;;;11.03;8.10;;;25.00;12.20;;;;;;5018316;28;20438;-73
2023/09/08 07:40:53;;;;;;;9.20;8.20;;;24.50;10.50;;;;;;5019681;28;20492;-72
2023/09/08 07:43:18;;;;;;;9.90;8.57;;;24.00;1.40;;;;;;5020818;28;20459;-72
2023/09/08 07:45:44;;;;;;;9.97;8.63;;;23.60;1.90;;;;;;5020609;28;20199;-73
2023/09/08 07:48:09;;;;;;;8.33;7.03;;;23.40;1.70;;;;;;5021415;28;20218;-72
2023/09/08 07:50:35;;;;;;;7.53;6.83;;;23.50;1.00;;;;;;5020099;28;20179;-74
2023/09/08 07:53:04;;;;;;;9.50;8.60;;;23.70;1.10;;;;;;5019881;28;20686;-74
2023/09/08 07:55:30;;;;;;;9.13;7.00;;;24.00;1.00;;;;;;5018570;28;20304;-72
2023/09/08 07:57:57;;;;;;;9.77;7.63;;;24.70;1.00;;;;;;5018305;28;20459;-73
2023/09/08 08:00:22;;;;;;;7.80;7.10;;;25.30;1.00;;;;;;5017105;28;20242;-72
2023/09/08 08:02:50;;;;;;;9.33;7.00;;;26.00;1.00;;;;;;5018575;28;20560;-74
2023/09/08 08:05:16;;;;;;;8.00;6.20;;;26.30;1.00;;;;;;5017900;28;20591;-73
2023/09/08 08:07:43;;;;;;;6.97;6.20;;;27.20;1.00;;;;;;5016202;28;20439;-73
2023/09/08 08:10:10;;;;;;;8.60;7.67;;;;;;;;;;5018427;28;20192;-73
2023/09/08 08:12:36;;;;;;;8.43;7.53;;;;;;;;;;5016683;28;20953;-69
2023/09/08 08:15:02;;;;;;;7.60;6.90;;;;;;;;;;5015062;28;20419;-75
2023/09/08 08:17:29;;;;;;;9.80;7.70;;;;;;;;;;5015353;28;20946;-73
2023/09/08 08:19:59;;;;;;;10.13;7.17;;;;;;;;;;5015413;28;20441;-72
2023/09/08 08:22:27;;;;;;;7.50;6.80;;;35.70;1.00;;;;;;5015592;28;20535;-72
2023/09/08 08:24:53;;;;;;;10.80;8.27;;;36.50;1.00;;;;;;5015488;28;20518;-73
2023/09/08 08:27:18;;;;;;;10.87;8.50;;;37.20;1.00;;;;;;5015184;28;20485;-72
2023/09/08 08:29:44;;;;;;;6.93;6.33;;;38.50;1.00;;;;;;5017022;28;20176;-73
2023/09/08 08:32:10;;;;;;;8.23;7.40;;;37.80;1.00;;;;;;5007004;28;20188;-72
2023/09/08 08:34:36;;;;;;;8.23;7.43;;;38.80;1.00;;;;;;4995513;28;20304;-72
2023/09/08 08:37:02;;;;;;;10.10;8.50;;;39.10;1.00;;;;;;4996645;28;20883;-71
2023/09/08 08:39:28;;;;;;;8.90;8.10;;;39.30;1.00;;;;;;4994755;28;20196;-72
2023/09/08 08:41:57;;;;;;;8.60;7.90;;;37.90;1.00;;;;;;4994567;28;20463;-71
2023/09/08 08:44:23;;;;;;;9.10;8.20;;;36.40;1.00;;;;;;5003926;28;20184;-72
2023/09/08 08:46:50;;;;;;;8.10;7.30;;;33.30;1.00;;;;;;5014105;28;20446;-71
2023/09/08 08:49:16;;;;;;;11.70;9.13;;;;;;;;;;5015379;28;20176;-71
2023/09/08 08:51:45;;;;;;;7.90;7.20;;;;;;;;;;5014423;28;20481;-71
2023/09/08 08:54:16;;;;;;;8.37;7.57;;;;;;;;;;5015089;28;20416;-71
2023/09/08 08:56:42;;;;;;;7.83;7.10;;;27.40;9.50;;;;;;5015844;28;20438;-71
2023/09/08 08:59:10;;;;;;;10.00;8.30;;;26.70;1.00;;;;;;5014812;28;20439;-71
2023/09/08 09:01:36;;;;;;;7.83;7.07;;;26.30;1.00;;;;;;5008712;28;20525;-71
2023/09/08 09:04:06;;;;;;;8.83;7.30;;;25.90;1.00;;;;;;5020730;28;20433;-71
2023/09/08 09:06:32;;;;;;;7.10;5.93;;;25.60;1.00;;;;;;5028019;28;20458;-71
2023/09/08 09:08:59;;;;;;;7.37;6.67;;;25.50;1.00;;;;;;5014462;28;20557;-71
2023/09/08 09:11:25;;;;;;;28.00;13.30;;;25.30;1.60;;;;;;5013876;28;20431;-72
2023/09/08 09:13:51;;;;;;;13.43;8.87;;;25.30;2.70;;;;;;5016356;28;20813;-73
2023/09/08 09:16:16;;;;;;;17.47;7.93;;;25.10;3.00;;;;;;5013484;28;20204;-72
2023/09/08 09:19:02;;;;;;;7.53;6.40;;;25.00;3.60;;;;;;5012982;28;20195;-71
2023/09/08 09:21:47;;;;;;;7.60;6.80;;;25.10;3.50;;;;;;5013285;28;20176;-72
2023/09/08 09:24:17;;;;;;;6.97;6.13;;;25.20;2.50;;;;;;5011381;28;20437;-71
2023/09/08 09:26:43;;;;;;;6.80;6.20;;;25.20;3.10;;;;;;5012912;28;20450;-71
2023/09/08 09:29:14;;;;;;;8.13;7.33;;;25.20;3.40;;;;;;5011764;28;20411;-70
2023/09/08 09:31:54;;;;;;;6.83;5.70;;;25.20;4.10;;;;;;5012889;28;20505;-71
2023/09/08 09:34:21;;;;;;;8.03;7.30;;;25.30;3.90;;;;;;5010788;28;20434;-70
2023/09/08 09:36:49;;;;;;;7.33;6.60;;;25.50;4.20;;;;;;5012726;28;20445;-71
2023/09/08 09:39:23;;;;;;;8.23;7.43;;;25.60;3.40;;;;;;5011542;28;21001;-70
2023/09/08 09:41:52;;;;;;;7.60;5.87;;;25.70;3.50;;;;;;5010997;28;21048;-70
2023/09/08 09:44:18;;;;;;;5.73;4.67;;;25.80;3.50;;;;;;5011274;28;20419;-70
2023/09/08 09:46:45;;;;;;;8.00;6.40;;;26.00;3.50;;;;;;5010753;28;20453;-71
2023/09/08 09:49:14;;;;;;;7.20;6.53;;;26.20;2.90;;;;;;5012574;28;20183;-71
2023/09/08 09:51:44;;;;;;;13.50;8.67;;;26.30;2.60;;;;;;5010753;28;20493;-71
2023/09/08 09:54:11;;;;;;;9.47;7.20;;;26.40;2.50;;;;;;5011256;28;20492;-71
2023/09/08 09:56:39;;;;;;;8.07;7.27;;;26.40;2.20;;;;;;5011578;28;20446;-70
2023/09/08 09:59:08;;;;;;;9.60;6.20;;;26.40;2.40;;;;;;5011627;28;20423;-70
2023/09/08 10:01:34;;;;;;;8.60;7.13;;;26.60;1.70;;;;;;5011793;28;20419;-70
2023/09/08 10:04:00;;;;;;;34.53;15.10;;;26.60;1.80;;;;;;5011606;28;20434;-71
2023/09/08 10:06:27;;;;;;;8.33;7.53;;;26.80;2.00;;;;;;5012136;28;20825;-70
2023/09/08 10:08:54;;;;;;;6.80;6.10;;;26.90;2.20;;;;;;5012058;28;20176;-70
2023/09/08 10:11:21;;;;;;;8.50;7.10;;;27.00;1.30;;;;;;5011506;28;20442;-71
2023/09/08 10:13:51;;;;;;;8.80;7.40;;;27.20;1.00;;;;;;5012013;28;20419;-71
2023/09/08 10:16:20;;;;;;;7.13;6.43;;;27.20;1.00;;;;;;5011908;28;20446;-70
2023/09/08 10:18:49;;;;;;;11.30;7.70;;;27.20;1.00;;;;;;5011946;28;20427;-69
2023/09/08 10:21:16;;;;;;;9.90;8.30;;;27.30;1.30;;;;;;5015628;28;20792;-71
2023/09/08 10:23:47;;;;;;;7.57;6.87;;;27.40;1.00;;;;;;5016065;28;20494;-71
2023/09/08 10:26:17;;;;;;;9.13;7.30;;;27.60;1.00;;;;;;5014376;28;20949;-71
2023/09/08 10:28:44;;;;;;;11.90;7.23;;;27.80;1.00;;;;;;5015842;28;20419;-71
2023/09/08 10:31:11;;;;;;;14.00;9.40;;;27.80;1.00;;;;;;5014313;28;20422;-71
2023/09/08 10:33:37;;;;;;;13.23;9.60;;;27.80;1.00;;;;;;5015776;28;20419;-71
2023/09/08 10:36:05;;;;;;;8.97;8.03;;;27.90;1.00;;;;;;5015671;28;20992;-71
2023/09/08 10:38:34;;;;;;;8.23;7.40;;;28.00;1.00;;;;;;5014660;28;20430;-72
2023/09/08 10:41:22;;;;;;;11.33;8.60;;;28.00;1.00;;;;;;5014130;28;20795;-70
2023/09/08 10:44:00;;;;;;;7.90;7.23;;;27.90;1.00;;;;;;5014018;28;20426;-70
2023/09/08 10:46:31;;;;;;;9.17;7.23;;;28.10;1.00;;;;;;5014685;28;20426;-71
2023/09/08 10:49:07;;;;;;;8.30;7.43;;;28.10;1.00;;;;;;5014807;28;20429;-70
2023/09/08 10:51:34;;;;;;;7.30;6.60;;;28.30;1.00;;;;;;5015137;28;20406;-71
2023/09/08 10:54:01;;;;;;;7.77;7.07;;;28.50;1.00;;;;;;5015466;28;20407;-70
2023/09/08 10:56:54;;;;;;;7.97;6.53;;;28.40;1.00;;;;;;5015382;28;20827;-70
2023/09/08 10:59:19;;;;;;;9.40;6.97;;;28.50;1.00;;;;;;5015377;28;20411;-70
2023/09/08 11:01:47;;;;;;;7.10;6.40;;;28.60;1.00;;;;;;5014973;28;20552;-70
2023/09/08 11:04:14;;;;;;;12.27;6.93;;;28.70;1.00;;;;;;5015170;28;20183;-70
2023/09/08 11:06:39;;;;;;;7.50;6.90;;;28.80;1.00;;;;;;5014872;28;20481;-70
2023/09/08 11:09:08;;;;;;;7.27;6.67;;;28.70;1.00;;;;;;5015137;28;20937;-70
2023/09/08 11:11:36;;;;;;;8.00;7.20;;;28.70;1.00;;;;;;5014515;28;20168;-70
2023/09/08 11:14:02;;;;;;;7.03;6.43;;;28.70;1.00;;;;;;5014723;28;20438;-70
2023/09/08 11:16:31;;;;;;;8.07;7.27;;;28.60;1.00;;;;;;5013274;28;20434;-70
2023/09/08 11:18:57;;;;;;;6.87;6.37;;;28.70;1.00;;;;;;5014709;28;20219;-70
2023/09/08 11:21:22;;;;;;;8.90;7.67;;;28.60;1.00;;;;;;5014198;28;20791;-70
2023/09/08 11:23:48;;;;;;;8.03;7.40;;;28.60;1.00;;;;;;5014627;28;20207;-71
2023/09/08 11:26:13;;;;;;;8.37;7.63;;;28.80;1.00;;;;;;5014435;28;20192;-71
2023/09/08 11:28:41;;;;;;;8.10;7.50;;;29.00;1.00;;;;;;5014474;28;20233;-71
2023/09/08 11:31:07;;;;;;;9.23;7.13;;;29.00;1.00;;;;;;5013390;28;20175;-71
2023/09/08 11:33:38;;;;;;;7.90;7.23;;;29.10;1.00;;;;;;5014319;28;20501;-71
2023/09/08 11:36:13;;;;;;;7.77;7.07;;;29.20;1.00;;;;;;5014662;28;20442;-71
2023/09/08 11:38:38;;;;;;;6.97;6.33;;;29.10;1.00;;;;;;5014545;28;20914;-71
2023/09/08 11:41:04;;;;;;;8.03;7.23;;;29.20;1.00;;;;;;5013982;28;20430;-71
2023/09/08 11:43:32;;;;;;;7.20;6.60;;;29.30;1.00;;;;;;5014138;28;20207;-71
2023/09/08 11:45:59;;;;;;;7.50;6.80;;;29.40;1.00;;;;;;5014485;28;20188;-71
2023/09/08 11:48:25;;;;;;;6.30;5.80;;;29.40;1.00;;;;;;5012966;28;20411;-71
2023/09/08 11:50:53;;;;;;;8.23;7.10;;;29.50;1.00;;;;;;5014382;28;20477;-71
2023/09/08 11:53:20;;;;;;;7.43;6.73;;;29.80;1.00;;;;;;5014223;28;20200;-71
2023/09/08 11:55:46;;;;;;;7.30;6.60;;;29.80;1.00;;;;;;5014112;28;20439;-71
2023/09/08 11:58:12;;;;;;;8.07;7.23;;;29.80;1.00;;;;;;5012700;28;20795;-71
2023/09/08 12:00:39;;;;;;;7.37;6.77;;;29.80;1.00;;;;;;5013566;28;20226;-71
2023/09/08 12:03:15;;;;;;;8.17;7.30;;;29.80;1.00;;;;;;5013669;28;20480;-71
2023/09/08 12:05:42;;;;;;;7.67;6.97;;;29.80;1.00;;;;;;5013722;28;20478;-69
2023/09/08 12:08:08;;;;;;;7.40;6.70;;;29.70;1.00;;;;;;5014563;28;20429;-71
2023/09/08 12:10:43;;;;;;;6.73;6.23;;;29.80;1.00;;;;;;5013995;28;20542;-71
2023/09/08 12:13:09;;;;;;;7.70;7.07;;;29.70;1.00;;;;;;5011592;28;21065;-73
2023/09/08 12:15:40;;;;;;;7.57;6.97;;;29.50;1.00;;;;;;5011020;28;20553;-73
2023/09/08 12:18:10;;;;;;;7.93;7.23;;;29.60;1.00;;;;;;5016265;28;20446;-68
2023/09/08 12:20:37;;;;;;;6.60;6.10;;;29.70;1.00;;;;;;5011740;28;20443;-68
2023/09/08 12:23:05;;;;;;;8.13;7.43;;;29.80;1.00;;;;;;5008212;28;20470;-66
2023/09/08 12:25:34;;;;;;;6.93;6.23;;;29.80;1.00;;;;;;5013032;28;20496;-67
2023/09/08 12:28:00;;;;;;;7.63;7.03;;;30.00;1.00;;;;;;5012770;28;20487;-70
2023/09/08 12:30:32;;;;;;;7.80;7.00;;;30.10;1.00;;;;;;5003587;28;20439;-72
2023/09/08 12:32:59;;;;;;;7.57;6.97;;;30.20;1.00;;;;;;5009342;28;20442;-68
2023/09/08 12:35:25;;;;;;;8.07;7.47;;;;;;;;;;5007560;28;20438;-69
2023/09/08 12:37:59;;;;;;;8.43;7.73;;;;;;;;;;5005845;28;20954;-69
2023/09/08 12:40:26;;;;;;;8.00;7.30;;;;;;;;;;4995992;28;20792;-67
2023/09/08 12:42:52;;;;;;;6.73;6.23;;;;;;;;;;5012799;28;20566;-68
2023/09/08 12:45:18;;;;;;;6.97;6.43;;;;;;;;;;5020995;28;20506;-69
2023/09/08 12:47:44;;;;;;;8.40;7.40;;;;;;;;;;5011112;28;20427;-69
2023/09/08 12:50:10;;;;;;;6.97;6.47;;;;;;;;;;5013338;28;20422;-69
2023/09/08 12:52:36;;;;;;;7.63;7.03;;;;;;;;;;5018831;28;20435;-69
2023/09/08 12:55:02;;;;;;;7.50;6.90;;;;;;;;;;5011219;28;20446;-69
2023/09/08 12:57:29;;;;;;;8.23;7.43;;;;;;;;;;5011985;28;20466;-69
2023/09/08 12:59:55;;;;;;;8.13;7.30;;;;;;;;;;5011003;28;20553;-69
2023/09/08 13:02:21;;;;;;;7.97;7.17;;;;;;;;;;5012605;28;20554;-68
2023/09/08 13:04:48;;;;;;;7.23;6.67;;;;;;;;;;5012013;28;20430;-69
2023/09/08 13:07:17;;;;;;;6.60;6.10;;;;;;;;;;5010704;28;20908;-69
2023/09/08 13:09:43;;;;;;;7.87;7.27;;;;;;;;;;5012568;28;20415;-69